| time (UTC) | temp F | wind direction | speed MPH | gust MPH | rain 1hr in | rain 24hr in | rain mn in | humidity % | barometer mb |
| 20260903050033 | 68 | 204 | 4.0 | 8.0 | 0.00 | 1.09 | 9.73 | 36 | 999.4 |
| 20260903044511 | 68 | 191 | 4.0 | 7.0 | 0.00 | 1.09 | 9.73 | 35 | 999.4 |
| 20260903043013 | 68 | 176 | 6.0 | 8.0 | 0.00 | 1.09 | 9.73 | 34 | 999.5 |
| 20260903041517 | 69 | 158 | 5.0 | 9.0 | 0.00 | 1.09 | 9.73 | 32 | 999.6 |
| 20260903040009 | 70 | 204 | 6.0 | 10.0 | 0.00 | 1.09 | 9.73 | 31 | 999.4 |
| 20260903034508 | 70 | 206 | 6.0 | 9.0 | 0.00 | 1.09 | 9.73 | 30 | 999.6 |
| 20260903033006 | 68 | 218 | 3.0 | 7.0 | 0.00 | 1.09 | 9.73 | 31 | 999.6 |
| 20260903031506 | 67 | 206 | 3.0 | 6.0 | 0.00 | 1.09 | 9.73 | 32 | 999.5 |
| 20260903030035 | 67 | 174 | 3.0 | 5.0 | 0.00 | 1.09 | 9.73 | 32 | 999.6 |
| 20260903024532 | 71 | 162 | 4.0 | 7.0 | 0.00 | 1.09 | 9.73 | 27 | 999.4 |
| 20260903023030 | 74 | 197 | 4.0 | 8.0 | 0.00 | 1.09 | 9.73 | 26 | 999.2 |
| 20260903021521 | 75 | 236 | 4.0 | 7.0 | 0.00 | 1.09 | 9.73 | 25 | 999.1 |
| 20260903020050 | 76 | 234 | 5.0 | 9.0 | 0.04 | 1.09 | 9.73 | 24 | 999.1 |
| 20260903014514 | 78 | 226 | 6.0 | 11.0 | 0.05 | 1.09 | 9.73 | 23 | 998.9 |
| 20260903013008 | 81 | 219 | 10.0 | 21.0 | 0.09 | 1.09 | 9.73 | 21 | 998.9 |
| 20260903011504 | 82 | 222 | 10.0 | 20.0 | 0.12 | 1.09 | 9.73 | 20 | 998.8 |
| 20260903010005 | 83 | 220 | 15.0 | 22.0 | 0.12 | 1.09 | 9.69 | 19 | 999.0 |
| 20260903004503 | 84 | 202 | 17.0 | 26.0 | 0.20 | 1.09 | 9.66 | 19 | 999.0 |
| 20260903003059 | 84 | 228 | 20.0 | 28.0 | 0.20 | 1.08 | 9.64 | 18 | 999.0 |
| 20260903001609 | 85 | 235 | 16.0 | 27.0 | 0.41 | 1.08 | 9.61 | 20 | 999.0 |
| 20260903000101 | 85 | 222 | 17.0 | 27.0 | 0.94 | 1.08 | 9.57 | 21 | 999.2 |
| 20260902234554 | 85 | 229 | 19.0 | 26.0 | 1.54 | 1.07 | 9.46 | 22 | 999.4 |
| 20260902233022 | 85 | 223 | 21.0 | 35.0 | 1.69 | 1.07 | 9.44 | 22 | 999.5 |
| 20260902231521 | 85 | 217 | 25.0 | 33.0 | 1.48 | 1.04 | 9.16 | 21 | 999.5 |
| 20260902230013 | 86 | 220 | 19.0 | 29.0 | 1.23 | 9.86 | 8.61 | 21 | 999.5 |
| 20260902224513 | 85 | 241 | 21.0 | 30.0 | 0.92 | 9.15 | 7.88 | 22 | 999.7 |
| 20260902223004 | 86 | 216 | 20.0 | 34.0 | 1.02 | 9.01 | 7.74 | 21 | 999.8 |
| 20260902221501 | 87 | 232 | 18.0 | 32.0 | 1.12 | 8.94 | 7.68 | 19 | 999.8 |
| 20260902220028 | 87 | 211 | 21.0 | 33.0 | 0.97 | 8.65 | 7.38 | 19 | 999.9 |
| 20260902214527 | 87 | 220 | 27.0 | 34.0 | 0.65 | 8.41 | 6.95 | 20 | 1000.1 |
| 20260902213021 | 87 | 227 | 20.0 | 33.0 | 1.13 | 8.18 | 6.72 | 18 | 1000.0 |
| 20260902211519 | 87 | 225 | 25.0 | 37.0 | 1.10 | 8.01 | 6.55 | 16 | 1000.1 |
| 20260902210017 | 86 | 271 | 17.0 | 35.0 | 0.99 | 7.87 | 6.41 | 17 | 1000.2 |
| 20260902204515 | 87 | 225 | 27.0 | 37.0 | 1.37 | 8.09 | 6.30 | 16 | 1000.4 |
| 20260902203043 | 88 | 236 | 18.0 | 35.0 | 1.29 | 7.37 | 5.58 | 16 | 1000.6 |
| 20260902201543 | 87 | 288 | 13.0 | 32.0 | 2.65 | 7.24 | 5.45 | 18 | 1000.7 |
| 20260902200037 | 87 | 238 | 18.0 | 34.0 | 3.28 | 7.21 | 5.42 | 18 | 1000.8 |
| 20260902194547 | 87 | 226 | 20.0 | 35.0 | 3.34 | 7.26 | 4.93 | 19 | 1001.2 |
| 20260902193029 | 87 | 220 | 20.0 | 38.0 | 3.13 | 6.62 | 4.29 | 18 | 1001.3 |
| 20260902191531 | 87 | 222 | 18.0 | 31.0 | 1.79 | 5.11 | 2.78 | 20 | 1001.4 |
| 20260902190021 | 86 | 199 | 15.0 | 30.0 | 1.44 | 4.42 | 2.09 | 22 | 1001.7 |
| 20260902184519 | 86 | 218 | 20.0 | 28.0 | 1.20 | 4.09 | 1.57 | 21 | 1002.1 |
| 20260902183014 | 84 | 223 | 15.0 | 27.0 | 0.95 | 3.65 | 1.12 | 25 | 1002.1 |
| 20260902181513 | 85 | 230 | 18.0 | 28.0 | 0.83 | 3.49 | 0.97 | 23 | 1002.4 |
| 20260902180007 | 85 | 227 | 15.0 | 23.0 | 0.63 | 3.17 | 0.65 | 23 | 1002.6 |
| 20260902174503 | 84 | 241 | 17.0 | 26.0 | 0.40 | 3.19 | 0.37 | 22 | 1002.6 |
| 20260902173103 | 84 | 251 | 16.0 | 28.0 | 0.22 | 3.00 | 0.18 | 23 | 1002.9 |
| 20260902171615 | 83 | 228 | 15.0 | 24.0 | 0.21 | 2.96 | 0.14 | 23 | 1002.9 |
| 20260902170053 | 83 | 214 | 16.0 | 24.0 | 0.14 | 2.84 | 0.02 | 25 | 1003.1 |
| 20260902164522 | 82 | 243 | 18.0 | 25.0 | 0.43 | 3.95 | 2.79 | 26 | 1003.3 |
| 20260902163020 | 83 | 237 | 13.0 | 24.0 | 0.47 | 3.94 | 2.78 | 26 | 1003.2 |
| 20260902161517 | 81 | 226 | 13.0 | 23.0 | 0.59 | 3.91 | 2.75 | 29 | 1003.2 |
| 20260902160014 | 81 | 222 | 17.0 | 21.0 | 0.71 | 3.85 | 2.69 | 28 | 1003.1 |
| 20260902154523 | 79 | 224 | 15.0 | 23.0 | 0.54 | 5.48 | 2.34 | 31 | 1003.1 |
| 20260902153011 | 78 | 208 | 17.0 | 25.0 | 0.52 | 5.43 | 2.29 | 32 | 1003.2 |
| 20260902151509 | 77 | 215 | 14.0 | 21.0 | 0.42 | 5.29 | 2.15 | 34 | 1003.4 |
| 20260902150008 | 75 | 221 | 13.0 | 19.0 | 0.26 | 5.12 | 1.98 | 40 | 1003.5 |
| 20260902144507 | 70 | 209 | 9.0 | 14.0 | 0.09 | 5.16 | 1.80 | 48 | 1003.7 |
| 20260902143007 | 68 | 182 | 9.0 | 14.0 | 0.08 | 5.13 | 1.77 | 49 | 1003.7 |
| 20260902141503 | 67 | 178 | 8.0 | 13.0 | 0.07 | 5.09 | 1.73 | 51 | 1003.8 |
| 20260902140008 | 66 | 177 | 10.0 | 15.0 | 0.08 | 5.08 | 1.72 | 52 | 1003.8 |
| 20260902134503 | 65 | 186 | 8.0 | 14.0 | 0.07 | 6.06 | 1.71 | 54 | 1003.9 |
| 20260902133011 | 63 | 171 | 9.0 | 14.0 | 0.07 | 6.04 | 1.69 | 58 | 1003.9 |
| 20260902131613 | 60 | 169 | 6.0 | 9.0 | 0.04 | 6.01 | 1.66 | 64 | 1003.8 |
| 20260902130107 | 58 | 176 | 6.0 | 9.0 | 0.05 | 5.99 | 1.64 | 67 | 1003.9 |
| 20260902124600 | 57 | 186 | 5.0 | 8.0 | 0.06 | 7.69 | 1.64 | 71 | 1003.8 |
| 20260902123059 | 55 | 207 | 4.0 | 9.0 | 0.04 | 7.67 | 1.62 | 72 | 1003.6 |
| 20260902121557 | 57 | 201 | 7.0 | 13.0 | 0.05 | 7.67 | 1.62 | 70 | 1003.6 |
| 20260902120056 | 57 | 192 | 7.0 | 12.0 | 0.02 | 7.64 | 1.59 | 71 | 1003.4 |
| 20260902114610 | 57 | 186 | 7.0 | 12.0 | 0.01 | 8.34 | 1.58 | 71 | 1003.5 |
| 20260902113051 | 58 | 183 | 6.0 | 10.0 | 0.01 | 8.34 | 1.58 | 69 | 1003.3 |
| 20260902111549 | 58 | 198 | 6.0 | 9.0 | 0.00 | 8.33 | 1.57 | 70 | 1003.2 |
| 20260902110100 | 57 | 227 | 4.0 | 8.0 | 0.00 | 8.33 | 1.57 | 76 | 1003.2 |
| 20260902104548 | 56 | 223 | 6.0 | 9.0 | 0.00 | 8.40 | 1.57 | 78 | 1003.2 |
| 20260902103058 | 56 | 207 | 5.0 | 8.0 | 0.00 | 8.40 | 1.57 | 80 | 1003.2 |
| 20260902101548 | 56 | 191 | 4.0 | 9.0 | 0.00 | 8.40 | 1.57 | 80 | 1003.3 |
| 20260902100044 | 56 | 200 | 4.0 | 8.0 | 0.00 | 8.40 | 1.57 | 82 | 1003.2 |
| 20260902094542 | 57 | 200 | 5.0 | 9.0 | 0.00 | 8.40 | 1.57 | 81 | 1003.3 |
| 20260902093042 | 57 | 176 | 5.0 | 9.0 | 0.00 | 8.40 | 1.57 | 81 | 1003.4 |
| 20260902091641 | 59 | 211 | 6.0 | 11.0 | 0.00 | 8.40 | 1.57 | 78 | 1003.4 |
| 20260902090038 | 59 | 201 | 4.0 | 7.0 | 0.00 | 8.40 | 1.57 | 80 | 1003.4 |
| 20260902084537 | 58 | 202 | 5.0 | 8.0 | 0.00 | 8.40 | 1.57 | 83 | 1003.6 |
| 20260902083039 | 56 | 175 | 1.0 | 3.0 | 0.00 | 8.40 | 1.57 | 83 | 1003.6 |
| 20260902081541 | 57 | 269 | 0.0 | 3.0 | 0.00 | 8.40 | 1.57 | 82 | 1003.7 |
| 20260902080045 | 57 | 46 | 0.0 | 2.0 | 0.00 | 8.40 | 1.57 | 82 | 1003.8 |
| 20260902074532 | 57 | 344 | 1.0 | 3.0 | 0.00 | 8.40 | 1.57 | 83 | 1003.8 |
| 20260902073033 | 57 | 178 | 1.0 | 4.0 | 0.00 | 8.40 | 1.57 | 83 | 1003.9 |
| 20260902071537 | 56 | 15 | 0.0 | 3.0 | 0.00 | 8.40 | 1.57 | 81 | 1004.0 |
| 20260902070028 | 57 | 28 | 0.0 | 2.0 | 0.00 | 8.40 | 1.57 | 83 | 1003.9 |
| 20260902064527 | 57 | 46 | 0.0 | 3.0 | 0.00 | 8.40 | 1.57 | 83 | 1003.9 |
| 20260902063027 | 55 | 206 | 1.0 | 3.0 | 0.00 | 8.40 | 1.57 | 84 | 1004.0 |
| 20260902061524 | 54 | 15 | 1.0 | 3.0 | 0.00 | 8.40 | 1.57 | 82 | 1004.1 |
| 20260902060020 | 56 | 135 | 1.0 | 2.0 | 0.00 | 8.40 | 1.57 | 81 | 1004.2 |
| 20260902054529 | 56 | 28 | 0.0 | 2.0 | 0.00 | 8.40 | 1.57 | 80 | 1004.3 |
| 20260902053018 | 57 | 161 | 2.0 | 3.0 | 0.00 | 8.40 | 1.57 | 77 | 1004.2 |
| 20260902051511 | 57 | 223 | 0.0 | 3.0 | 0.00 | 8.40 | 1.57 | 74 | 1004.0 |